createdAt,value
2022-08-20T00:01:19.211Z,61916.13
2022-08-20T00:03:50.254Z,61945.16
2022-08-20T00:06:21.007Z,61990.72
2022-08-20T00:08:47.527Z,61899.56
2022-08-20T00:11:18.668Z,61866.41
2022-08-20T00:13:47.437Z,61901.63
2022-08-20T00:16:14.458Z,61955.50
2022-08-20T00:18:41.270Z,61930.63
2022-08-20T00:21:08.933Z,61862.28
2022-08-20T00:23:39.334Z,61841.56
2022-08-20T00:26:06.279Z,61822.91
2022-08-20T00:28:32.603Z,61876.78
2022-08-20T00:30:58.990Z,61847.75
2022-08-20T00:33:25.651Z,61868.50
2022-08-20T00:35:53.536Z,61843.63
2022-08-20T00:38:20.016Z,61787.69
2022-08-20T00:40:56.788Z,61851.91
2022-08-20T00:43:32.545Z,61874.69
2022-08-20T00:46:00.202Z,61802.19
2022-08-20T00:48:28.001Z,61829.13
2022-08-20T00:50:55.298Z,61845.69
2022-08-20T00:53:22.527Z,61818.75
2022-08-20T00:55:48.965Z,61827.06
2022-08-20T00:58:15.375Z,61723.47
2022-08-20T01:00:44.590Z,61723.47
2022-08-20T01:03:11.634Z,61727.59
2022-08-20T01:05:39.568Z,61729.69
2022-08-20T01:08:06.057Z,61721.38
2022-08-20T01:10:34.778Z,61723.47
2022-08-20T01:13:03.203Z,61713.09
2022-08-20T01:15:30.810Z,61742.09
2022-08-20T01:17:58.556Z,61715.19
2022-08-20T01:20:29.529Z,61686.16
2022-08-20T01:23:29.962Z,61644.75
2022-08-20T01:25:56.632Z,61661.31
2022-08-20T01:28:24.261Z,61619.88
2022-08-20T01:30:50.667Z,61580.50
2022-08-20T01:33:17.773Z,61597.09
2022-08-20T01:35:44.534Z,61588.81
2022-08-20T01:38:11.145Z,61526.66
2022-08-20T01:40:40.521Z,61609.53
2022-08-20T01:43:09.102Z,61611.59
2022-08-20T01:45:36.669Z,61559.81
2022-08-20T01:48:06.482Z,61597.09
2022-08-20T01:50:32.826Z,61568.09
2022-08-20T01:52:59.842Z,61636.44
2022-08-20T01:55:27.542Z,61624.03
2022-08-20T01:57:53.943Z,61650.94
2022-08-20T02:00:22.276Z,61588.81
2022-08-20T02:02:49.364Z,61648.88
2022-08-20T02:05:15.757Z,61679.97
2022-08-20T02:07:42.276Z,61679.97
2022-08-20T02:10:09.375Z,61690.31
2022-08-20T02:12:35.779Z,61684.09
2022-08-20T02:15:02.255Z,61648.88
2022-08-20T02:17:29.362Z,61667.53
2022-08-20T02:19:58.282Z,61642.66
2022-08-20T02:22:27.098Z,61642.66
2022-08-20T02:24:53.927Z,61628.16
2022-08-20T02:27:23.511Z,61605.38
2022-08-20T02:29:51.203Z,61553.59
2022-08-20T02:32:24.491Z,61568.09
2022-08-20T02:35:03.062Z,61576.38
2022-08-20T02:37:29.486Z,61510.09
2022-08-20T02:39:55.928Z,61537.00
2022-08-20T02:42:22.304Z,61588.81
2022-08-20T02:44:48.726Z,61501.78
2022-08-20T02:47:15.088Z,61462.44
2022-08-20T02:49:41.458Z,61452.06
2022-08-20T02:52:07.973Z,61429.28
2022-08-20T02:54:34.633Z,61418.94
2022-08-20T02:57:02.250Z,61412.72
2022-08-20T02:59:28.690Z,61429.28
2022-08-20T03:01:59.711Z,61468.66
2022-08-20T03:04:27.073Z,61472.78
2022-08-20T03:06:53.610Z,61474.88
2022-08-20T03:09:19.971Z,61501.78
2022-08-20T03:11:46.347Z,61493.50
2022-08-20T03:14:12.734Z,61489.38
2022-08-20T03:16:39.213Z,61518.38
2022-08-20T03:19:05.650Z,61597.09
2022-08-20T03:21:32.540Z,61570.16
2022-08-20T03:23:58.922Z,61462.44
2022-08-20T03:26:25.280Z,61483.16
2022-08-20T03:28:51.766Z,61460.38
2022-08-20T03:31:18.280Z,61452.06
2022-08-20T03:33:53.155Z,61485.22
2022-08-20T03:36:26.701Z,61470.72
2022-08-20T03:38:55.464Z,61532.88
2022-08-20T03:41:21.958Z,61487.28
2022-08-20T03:43:48.355Z,61476.94
2022-08-20T03:46:23.651Z,61508.00
2022-08-20T03:48:56.332Z,61468.66
2022-08-20T03:51:25.958Z,61439.66
2022-08-20T03:53:52.645Z,61487.28
2022-08-20T03:56:19.020Z,61435.50
2022-08-20T03:58:46.327Z,61516.28
2022-08-20T04:01:45.855Z,61514.22
2022-08-20T04:03:59.166Z,61441.72
2022-08-20T04:06:25.809Z,61476.94
2022-08-20T04:08:54.063Z,61464.50
2022-08-20T04:11:20.616Z,61416.84
2022-08-20T04:13:46.985Z,61450.00
2022-08-20T04:16:15.608Z,61512.16
2022-08-20T04:18:43.421Z,61526.66
2022-08-20T04:21:31.040Z,61441.72
2022-08-20T04:23:59.729Z,61439.66
2022-08-20T04:26:26.101Z,61460.38
2022-08-20T04:28:52.984Z,61418.94
2022-08-20T04:31:24.844Z,61470.72
2022-08-20T04:33:51.693Z,61485.22
2022-08-20T04:36:18.096Z,61479.00
2022-08-20T04:38:47.848Z,61472.78
2022-08-20T04:41:22.811Z,61526.66
2022-08-20T04:43:50.626Z,61568.09
2022-08-20T04:46:17.178Z,61553.59
2022-08-20T04:48:49.104Z,61619.88
2022-08-20T04:51:17.266Z,61667.53
2022-08-20T04:53:45.128Z,61700.69
2022-08-20T04:56:23.127Z,61717.25
2022-08-20T04:58:51.006Z,61773.19
2022-08-20T05:01:17.380Z,61806.34
2022-08-20T05:03:43.892Z,61866.41
2022-08-20T05:06:10.752Z,61841.56
2022-08-20T05:08:38.483Z,61816.69
2022-08-20T05:11:33.088Z,61835.34
2022-08-20T05:13:52.791Z,61845.69
2022-08-20T05:16:19.941Z,61841.56
2022-08-20T05:18:48.757Z,61887.13
2022-08-20T05:21:19.717Z,61982.44
2022-08-20T05:23:46.204Z,61988.66
2022-08-20T05:26:12.980Z,62015.59
2022-08-20T05:28:51.246Z,62100.53
2022-08-20T05:31:32.435Z,62090.19
2022-08-20T05:34:00.707Z,62156.47
2022-08-20T05:36:27.053Z,62156.47
2022-08-20T05:38:54.755Z,62083.97
2022-08-20T05:41:29.436Z,62129.53
2022-08-20T05:43:56.853Z,62144.03
2022-08-20T05:46:23.258Z,62079.81
2022-08-20T05:48:49.603Z,62092.25
2022-08-20T05:51:15.979Z,62139.91
2022-08-20T05:53:42.328Z,62121.25
2022-08-20T05:56:11.165Z,62148.19
2022-08-20T05:58:37.515Z,62239.34
2022-08-20T06:01:05.846Z,62210.34
2022-08-20T06:03:51.011Z,62195.84
2022-08-20T06:06:18.631Z,62276.66
2022-08-20T06:09:04.020Z,62197.91
2022-08-20T06:11:33.908Z,62245.56
2022-08-20T06:14:03.547Z,62222.78
2022-08-20T06:16:30.262Z,62141.97
2022-08-20T06:18:58.505Z,62144.03
2022-08-20T06:21:25.081Z,62152.34
2022-08-20T06:23:57.707Z,62123.31
2022-08-20T06:26:30.076Z,62168.91
2022-08-20T06:28:58.131Z,62235.22
2022-08-20T06:31:24.935Z,62189.63
2022-08-20T06:33:51.475Z,62231.06
2022-08-20T06:36:18.770Z,62299.44
2022-08-20T06:38:46.133Z,62342.97
2022-08-20T06:41:12.502Z,62504.59
2022-08-20T06:43:38.878Z,62657.91
2022-08-20T06:46:06.457Z,62682.78
2022-08-20T06:48:32.802Z,62747.03
2022-08-20T06:50:59.219Z,62742.88
2022-08-20T06:53:25.564Z,62686.94
2022-08-20T06:55:53.577Z,63101.41
2022-08-20T06:58:32.826Z,63304.50
2022-08-20T07:01:09.257Z,63412.28
2022-08-20T07:03:38.181Z,63764.63
2022-08-20T07:06:04.991Z,64365.78
2022-08-20T07:08:31.464Z,64303.59
2022-08-20T07:10:58.206Z,64340.91
2022-08-20T07:13:24.740Z,64025.81
2022-08-20T07:15:53.118Z,63928.38
2022-08-20T07:18:27.865Z,63650.63
2022-08-20T07:20:57.002Z,63573.94
2022-08-20T07:23:24.050Z,63439.22
2022-08-20T07:25:50.827Z,63957.41
2022-08-20T07:28:19.572Z,64127.38
2022-08-20T07:31:13.731Z,64204.09
2022-08-20T07:33:42.164Z,64415.53
2022-08-20T07:36:11.003Z,64349.22
2022-08-20T07:38:37.349Z,64438.34
2022-08-20T07:41:06.658Z,64436.28
2022-08-20T07:43:33.041Z,64187.50
2022-08-20T07:46:03.145Z,64566.88
2022-08-20T07:48:31.894Z,64875.81
2022-08-20T07:51:00.248Z,65288.44
2022-08-20T07:53:26.927Z,65522.75
2022-08-20T07:55:59.330Z,65788.19
2022-08-20T07:58:33.467Z,65290.50
2022-08-20T08:01:00.385Z,64600.06
2022-08-20T08:03:39.884Z,64343.00
2022-08-20T08:06:14.611Z,64351.28
2022-08-20T08:08:43.995Z,64268.34
2022-08-20T08:11:13.860Z,64376.16
2022-08-20T08:13:41.046Z,64697.50
2022-08-20T08:16:17.029Z,65649.25
2022-08-20T08:18:48.801Z,65736.34
2022-08-20T08:21:15.449Z,65653.41
2022-08-20T08:23:44.349Z,65076.94
2022-08-20T08:26:18.791Z,64486.03
2022-08-20T08:28:45.838Z,64544.09
2022-08-20T08:31:12.691Z,64309.81
2022-08-20T08:33:40.954Z,64305.66
2022-08-20T08:36:09.885Z,64365.78
2022-08-20T08:38:37.854Z,64674.69
2022-08-20T08:41:08.260Z,64805.31
2022-08-20T08:43:34.840Z,64660.19
2022-08-20T08:46:05.364Z,64260.06
2022-08-20T08:48:33.816Z,64293.22
2022-08-20T08:51:00.358Z,64249.69
2022-08-20T08:59:46.200Z,63696.22
2022-08-20T09:02:28.219Z,63325.22
2022-08-20T09:04:59.394Z,62989.50
2022-08-20T09:07:32.671Z,63047.50
2022-08-20T09:09:59.879Z,63275.50
2022-08-20T09:12:29.500Z,63482.75
2022-08-20T09:14:55.956Z,63451.66
2022-08-20T09:17:25.858Z,63522.13
2022-08-20T09:20:03.216Z,63828.91
2022-08-20T09:22:47.233Z,64728.59
2022-08-20T09:25:34.112Z,65116.31
2022-08-20T09:28:17.749Z,65211.72
2022-08-20T09:30:46.700Z,65701.09
2022-08-20T09:33:13.441Z,65645.09
2022-08-20T09:35:40.803Z,65253.19
2022-08-20T09:38:07.337Z,64660.19
2022-08-20T09:40:33.816Z,64685.06
2022-08-20T09:43:00.850Z,64052.75
2022-08-20T09:45:27.372Z,63961.56
2022-08-20T09:48:10.309Z,64214.47
2022-08-20T09:50:37.507Z,64790.81
2022-08-20T09:53:04.505Z,64135.69
2022-08-20T09:55:31.007Z,64392.75
2022-08-20T09:57:57.926Z,64979.47
2022-08-20T10:00:24.643Z,65004.34
2022-08-20T10:02:51.157Z,65049.97
2022-08-20T10:05:17.658Z,64908.97
2022-08-20T10:07:46.102Z,64494.31
2022-08-20T10:10:13.173Z,64096.28
2022-08-20T10:12:41.499Z,63936.69
2022-08-20T10:15:08.270Z,63806.09
2022-08-20T10:17:37.047Z,64073.50
2022-08-20T10:20:04.003Z,64597.97
2022-08-20T10:22:32.676Z,65116.31
2022-08-20T10:24:59.110Z,64736.91
2022-08-20T10:27:25.603Z,64705.78
2022-08-20T10:29:52.046Z,64260.06
2022-08-20T10:32:22.718Z,65437.72
2022-08-20T10:34:49.251Z,65719.75
2022-08-20T10:37:22.179Z,64950.44
2022-08-20T10:39:48.547Z,65062.41
2022-08-20T10:42:15.082Z,64871.66
2022-08-20T10:44:41.627Z,64693.34
2022-08-20T10:47:24.651Z,64898.63
2022-08-20T10:49:51.539Z,64496.41
2022-08-20T10:52:17.920Z,64660.19
2022-08-20T10:54:44.452Z,65195.13
2022-08-20T10:57:15.698Z,66049.50
2022-08-20T10:59:42.594Z,65535.19
2022-08-20T11:02:11.608Z,65149.50
2022-08-20T11:04:38.076Z,65883.59
2022-08-20T11:07:49.843Z,65916.78
2022-08-20T11:10:20.659Z,65939.59
2022-08-20T11:12:47.194Z,66194.69
2022-08-20T11:15:14.579Z,66373.06
2022-08-20T11:17:45.012Z,66671.75
2022-08-20T11:20:15.254Z,66229.94
2022-08-20T11:22:44.892Z,65443.94
2022-08-20T11:25:11.438Z,65112.19
2022-08-20T11:27:41.040Z,64838.50
2022-08-20T11:30:08.683Z,65000.22
2022-08-20T11:32:38.012Z,65686.56
2022-08-20T11:35:24.462Z,65983.13
2022-08-20T11:37:51.895Z,66306.69
2022-08-20T11:40:18.974Z,66140.75
2022-08-20T11:43:11.162Z,66904.06
2022-08-20T11:45:37.423Z,66194.69
2022-08-20T11:48:04.671Z,67101.16
2022-08-20T11:50:31.137Z,66698.72
2022-08-20T11:52:59.105Z,66605.38
2022-08-20T11:55:30.620Z,66592.94
2022-08-20T11:58:00.413Z,66215.44
2022-08-20T12:00:31.946Z,65435.66
2022-08-20T12:03:05.607Z,65201.34
2022-08-20T12:05:36.991Z,65027.16
2022-08-20T12:08:04.097Z,64527.50
2022-08-20T12:10:30.773Z,64318.13
2022-08-20T12:12:57.492Z,64415.53
2022-08-20T12:15:24.286Z,64554.44
2022-08-20T12:17:53.094Z,64774.22
2022-08-20T12:20:21.174Z,64778.34
2022-08-20T12:22:47.598Z,64525.44
2022-08-20T12:25:14.458Z,64568.97
2022-08-20T12:27:41.506Z,64805.31
2022-08-20T12:30:12.408Z,64718.22
2022-08-20T12:32:39.288Z,65008.50
2022-08-20T12:35:06.667Z,65238.66
2022-08-20T12:37:33.176Z,65344.41
2022-08-20T12:40:00.420Z,65255.25
2022-08-20T12:42:27.213Z,65952.03
2022-08-20T12:44:53.737Z,66528.63
2022-08-20T12:47:27.692Z,66910.31
2022-08-20T12:49:55.495Z,66427.00
2022-08-20T12:52:22.564Z,66182.25
2022-08-20T12:54:49.418Z,66400.03
2022-08-20T12:57:32.444Z,66823.19
2022-08-20T13:00:00.272Z,67422.72
2022-08-20T13:02:26.936Z,67845.97
2022-08-20T13:04:53.417Z,68163.44
2022-08-20T13:07:21.005Z,67451.75
2022-08-20T13:09:49.779Z,67028.53
2022-08-20T13:12:16.411Z,66277.66
2022-08-20T13:14:42.890Z,65775.75
2022-08-20T13:17:09.299Z,65543.50
2022-08-20T13:19:36.902Z,65504.09
2022-08-20T13:22:03.713Z,65626.44
2022-08-20T13:24:30.045Z,65991.44
2022-08-20T13:27:03.714Z,66300.47
2022-08-20T13:29:30.068Z,66400.03
2022-08-20T13:31:56.581Z,66202.97
2022-08-20T13:34:22.921Z,66285.94
2022-08-20T13:36:49.380Z,65694.88
2022-08-20T13:39:15.851Z,65560.06
2022-08-20T13:41:43.569Z,65435.66
2022-08-20T13:44:10.769Z,65566.31
2022-08-20T13:46:37.087Z,65653.41
2022-08-20T13:49:03.426Z,65835.91
2022-08-20T13:51:30.605Z,65981.06
2022-08-20T13:53:57.257Z,66373.06
2022-08-20T13:56:23.619Z,66663.44
2022-08-20T13:58:50.101Z,66902.00
2022-08-20T14:01:19.498Z,67053.44
2022-08-20T14:03:46.522Z,67480.81
2022-08-20T14:06:13.210Z,66991.22
2022-08-20T14:08:39.553Z,66964.25
2022-08-20T14:11:05.996Z,67094.94
2022-08-20T14:13:32.445Z,66466.41
2022-08-20T14:15:58.893Z,66472.63
2022-08-20T14:18:25.246Z,66155.28
2022-08-20T14:20:51.629Z,65893.97
2022-08-20T14:23:17.948Z,65589.09
2022-08-20T14:25:47.864Z,65611.91
2022-08-20T14:28:24.058Z,66120.03
2022-08-20T14:30:53.382Z,67337.66
2022-08-20T14:33:19.904Z,67816.94
2022-08-20T14:35:46.385Z,67194.50
2022-08-20T14:38:12.723Z,67003.66
2022-08-20T14:40:39.064Z,66648.94
2022-08-20T14:43:05.487Z,66256.91
2022-08-20T14:45:31.930Z,66389.66
2022-08-20T14:47:58.323Z,66373.06
2022-08-20T14:50:25.132Z,66219.56
2022-08-20T14:52:51.914Z,65723.91
2022-08-20T14:55:19.157Z,65848.34
2022-08-20T14:57:45.712Z,65858.72
2022-08-20T15:00:18.033Z,65873.22
2022-08-20T15:02:44.986Z,65736.34
2022-08-20T15:05:11.355Z,65626.44
2022-08-20T15:07:39.438Z,65993.50
2022-08-20T15:10:07.245Z,65945.81
2022-08-20T15:12:35.219Z,65949.97
2022-08-20T15:15:13.459Z,66796.22
2022-08-20T15:17:49.150Z,67126.06
2022-08-20T15:20:20.456Z,68119.88
2022-08-20T15:22:47.622Z,67939.34
2022-08-20T15:25:18.037Z,67829.38
2022-08-20T15:27:47.651Z,67798.25
2022-08-20T15:30:16.160Z,67053.44
2022-08-20T15:32:51.424Z,67520.22
2022-08-20T15:35:21.294Z,67269.19
2022-08-20T15:37:50.731Z,66891.63
2022-08-20T15:40:22.502Z,66269.34
2022-08-20T15:42:50.904Z,66539.00
2022-08-20T15:45:21.513Z,66837.69
2022-08-20T15:48:07.225Z,67022.31
2022-08-20T15:50:40.890Z,66916.53
2022-08-20T15:53:09.806Z,66835.63
2022-08-20T15:55:37.052Z,66559.75
2022-08-20T15:58:23.012Z,66553.50
2022-08-20T16:01:24.519Z,66636.50
2022-08-20T16:03:51.912Z,66383.44
2022-08-20T16:06:19.445Z,66041.22
2022-08-20T16:09:04.259Z,65972.78
2022-08-20T16:11:42.804Z,65771.59
2022-08-20T16:14:22.051Z,66076.47
2022-08-20T16:16:48.491Z,66329.50
2022-08-20T16:19:16.703Z,66536.91
2022-08-20T16:21:43.341Z,66551.44
2022-08-20T16:24:12.902Z,66445.66
2022-08-20T16:27:01.163Z,67084.56
2022-08-20T16:29:33.049Z,66688.34
2022-08-20T16:32:00.714Z,66690.41
2022-08-20T16:34:33.342Z,66640.63
2022-08-20T16:37:03.563Z,66418.69
2022-08-20T16:39:41.720Z,65881.53
2022-08-20T16:42:08.346Z,65616.06
2022-08-20T16:44:35.840Z,65232.44
2022-08-20T16:47:43.526Z,65095.59
2022-08-20T16:50:11.691Z,65052.06
2022-08-20T16:52:39.874Z,65037.53
2022-08-20T16:55:06.432Z,64933.88
2022-08-20T16:57:32.874Z,64844.72
2022-08-20T17:00:16.902Z,64691.28
2022-08-20T17:02:56.353Z,64635.31
2022-08-20T17:05:23.857Z,64535.78
2022-08-20T17:07:57.315Z,64566.88
2022-08-20T17:10:27.243Z,64604.22
2022-08-20T17:12:59.754Z,64714.09
2022-08-20T17:15:28.111Z,64635.31
2022-08-20T17:17:55.763Z,64525.44
2022-08-20T17:20:23.170Z,64635.31
2022-08-20T17:22:51.111Z,64496.41
2022-08-20T17:25:18.929Z,64465.31
2022-08-20T17:27:45.533Z,64361.66
2022-08-20T17:30:20.888Z,64282.88
2022-08-20T17:32:58.016Z,64295.31
2022-08-20T17:35:29.676Z,64208.25
2022-08-20T17:37:56.107Z,64270.44
2022-08-20T17:40:25.546Z,64162.63
2022-08-20T17:42:52.962Z,64258.00
2022-08-20T17:45:23.541Z,64150.19
2022-08-20T17:47:50.025Z,64133.59
2022-08-20T17:50:21.146Z,64085.94
2022-08-20T17:52:55.746Z,64069.34
2022-08-20T17:55:22.284Z,63942.91
2022-08-20T17:57:49.917Z,63729.41
2022-08-20T18:00:23.146Z,63623.69
2022-08-20T18:02:51.123Z,63520.06
2022-08-20T18:05:21.046Z,63453.72
2022-08-20T18:08:06.714Z,63404.00
2022-08-20T18:10:34.438Z,63362.53
2022-08-20T18:13:13.074Z,63277.56
2022-08-20T18:16:01.100Z,63217.47
2022-08-20T18:18:31.662Z,63217.47
2022-08-20T18:21:17.360Z,63167.72
2022-08-20T18:23:52.022Z,62993.63
2022-08-20T18:26:27.577Z,62898.31
2022-08-20T18:28:57.155Z,62711.81
2022-08-20T18:31:27.149Z,62572.97
2022-08-20T18:33:53.563Z,62461.06
2022-08-20T18:36:19.896Z,62359.53
2022-08-20T18:39:15.589Z,62293.22
2022-08-20T18:42:01.713Z,62152.34
2022-08-20T18:44:28.126Z,62071.53
2022-08-20T18:46:56.511Z,62001.09
2022-08-20T18:49:34.423Z,62025.94
2022-08-20T18:52:10.729Z,61928.56
2022-08-20T18:54:37.259Z,61849.84
2022-08-20T18:57:03.846Z,61781.47
2022-08-20T18:59:30.185Z,61752.47
2022-08-20T19:01:56.727Z,61667.53
2022-08-20T19:04:28.756Z,61607.44
2022-08-20T19:06:58.213Z,61582.59
2022-08-20T19:09:27.662Z,61534.94
2022-08-20T19:12:12.804Z,61516.28
2022-08-20T19:14:57.856Z,61599.16
2022-08-20T19:17:25.421Z,61727.59
2022-08-20T19:20:01.640Z,61787.69
2022-08-20T19:22:30.491Z,61816.69
2022-08-20T19:24:58.663Z,61657.16
2022-08-20T19:27:25.515Z,61715.19
2022-08-20T19:29:57.109Z,61766.97
2022-08-20T19:32:31.015Z,61717.25
2022-08-20T19:35:01.569Z,61671.66
2022-08-20T19:37:39.804Z,61692.38
2022-08-20T19:40:20.138Z,61638.53
2022-08-20T19:42:46.760Z,61582.59
2022-08-20T19:45:18.787Z,61580.50
2022-08-20T19:48:04.368Z,61518.38
2022-08-20T19:50:36.814Z,61499.72
2022-08-20T19:53:08.256Z,61605.38
2022-08-20T19:55:35.893Z,61534.94
2022-08-20T19:58:04.838Z,61522.50
2022-08-20T20:00:37.365Z,61435.50
2022-08-20T20:03:15.202Z,61423.06
2022-08-20T20:05:57.359Z,61352.63
2022-08-20T20:08:24.422Z,61249.06
2022-08-20T20:10:54.929Z,61290.50
2022-08-20T20:13:22.104Z,61215.91
2022-08-20T20:15:52.437Z,61238.72
2022-08-20T20:18:18.793Z,61294.63
2022-08-20T20:20:55.907Z,61236.63
2022-08-20T20:23:28.284Z,61197.28
2022-08-20T20:26:16.527Z,61253.22
2022-08-20T20:28:45.864Z,61325.72
2022-08-20T20:31:28.337Z,61327.78
2022-08-20T20:33:55.686Z,61313.28
2022-08-20T20:36:36.204Z,61373.34
2022-08-20T20:39:11.224Z,61319.50
2022-08-20T20:41:40.194Z,61311.22
2022-08-20T20:44:07.892Z,61325.72
2022-08-20T20:46:37.677Z,61300.84
2022-08-20T20:49:23.381Z,61269.78
2022-08-20T20:52:03.915Z,61215.91
2022-08-20T20:54:30.241Z,61284.28
2022-08-20T20:57:04.819Z,61155.84
2022-08-20T20:59:31.786Z,61108.22
2022-08-20T21:02:00.481Z,61017.06
2022-08-20T21:04:29.549Z,61006.72
2022-08-20T21:06:58.794Z,60996.34
2022-08-20T21:09:28.414Z,60938.34
2022-08-20T21:11:54.793Z,60884.50
2022-08-20T21:14:21.201Z,60903.16
2022-08-20T21:16:47.692Z,60824.44
2022-08-20T21:19:16.292Z,60785.09
2022-08-20T21:21:42.790Z,60780.94
2022-08-20T21:24:14.317Z,60687.72
2022-08-20T21:26:40.677Z,60677.38
2022-08-20T21:29:07.442Z,60650.44
2022-08-20T21:31:34.516Z,60577.97
2022-08-20T21:34:01.066Z,60629.75
2022-08-20T21:36:27.509Z,60567.59
2022-08-20T21:38:53.871Z,60575.88
2022-08-20T21:41:29.931Z,60548.97
2022-08-20T21:43:57.217Z,60480.63
2022-08-20T21:46:30.275Z,60495.13
2022-08-20T21:48:59.029Z,60437.13
2022-08-20T21:51:27.952Z,60437.13
2022-08-20T21:53:54.773Z,60387.41
2022-08-20T21:56:22.937Z,60410.19
2022-08-20T21:58:49.330Z,60370.84
2022-08-20T22:01:16.899Z,60343.94
2022-08-20T22:03:49.596Z,60314.94
2022-08-20T22:06:22.483Z,60288.00
2022-08-20T22:08:51.122Z,60335.66
2022-08-20T22:11:22.558Z,60267.31
2022-08-20T22:13:48.865Z,60294.22
2022-08-20T22:16:18.664Z,60335.66
2022-08-20T22:18:45.455Z,60306.66
2022-08-20T22:21:14.284Z,60261.09
2022-08-20T22:23:40.643Z,60261.09
2022-08-20T22:26:09.489Z,60178.25
2022-08-20T22:28:38.216Z,60182.41
2022-08-20T22:31:04.848Z,60186.53
2022-08-20T22:33:33.751Z,60145.13
2022-08-20T22:36:06.428Z,60153.41
2022-08-20T22:38:32.952Z,60167.91
2022-08-20T22:41:09.404Z,60184.47
2022-08-20T22:43:46.294Z,60172.03
2022-08-20T22:46:23.999Z,60176.19
2022-08-20T22:48:52.784Z,60163.75
2022-08-20T22:51:23.322Z,60130.63
2022-08-20T22:53:49.710Z,60126.47
2022-08-20T22:56:21.645Z,60138.91
2022-08-20T22:58:50.066Z,60122.34
2022-08-20T23:01:17.161Z,60176.19
2022-08-20T23:03:43.516Z,60172.03
2022-08-20T23:06:09.983Z,60161.69
2022-08-20T23:08:36.704Z,60145.13
2022-08-20T23:11:03.030Z,60145.13
2022-08-20T23:13:29.332Z,60134.75
2022-08-20T23:15:55.745Z,60147.19
2022-08-20T23:18:22.095Z,60105.78
2022-08-20T23:20:50.761Z,60186.53
2022-08-20T23:23:17.149Z,60271.44
2022-08-20T23:25:43.497Z,60321.16
2022-08-20T23:28:09.973Z,60395.72
2022-08-20T23:30:36.410Z,60439.19
2022-08-20T23:33:03.013Z,60445.41
2022-08-20T23:35:29.832Z,60482.69
2022-08-20T23:37:58.630Z,60551.03
2022-08-20T23:40:28.241Z,60528.25
2022-08-20T23:42:54.938Z,60611.09
2022-08-20T23:45:21.731Z,60631.81
2022-08-20T23:47:48.079Z,60615.25
2022-08-20T23:50:15.387Z,60619.38
2022-08-20T23:52:41.858Z,60555.19
2022-08-20T23:55:08.432Z,60592.47
2022-08-20T23:57:34.879Z,60555.19
